createdAt,value
2019-05-13T00:00:10.524Z,79.60
2019-05-13T00:02:40.707Z,85.40
2019-05-13T00:05:10.767Z,82.80
2019-05-13T00:07:40.799Z,82.70
2019-05-13T00:10:11.075Z,87.50
2019-05-13T00:12:41.028Z,89.70
2019-05-13T00:15:13.757Z,89.90
2019-05-13T00:17:44.643Z,91.60
2019-05-13T00:20:14.325Z,92.20
2019-05-13T00:22:45.086Z,88.20
2019-05-13T00:25:15.162Z,87.70
2019-05-13T00:27:45.211Z,85.80
2019-05-13T00:30:15.335Z,89.00
2019-05-13T00:32:45.376Z,87.10
2019-05-13T00:35:15.478Z,89.20
2019-05-13T00:37:45.554Z,86.90
2019-05-13T00:40:15.660Z,88.80
2019-05-13T00:42:45.735Z,91.60
2019-05-13T00:45:15.931Z,90.20
2019-05-13T00:47:45.863Z,89.80
2019-05-13T00:50:15.976Z,90.00
2019-05-13T00:52:45.980Z,89.10
2019-05-13T00:55:16.023Z,87.20
2019-05-13T00:57:46.024Z,87.20
2019-05-13T01:03:14.364Z,90.10
2019-05-13T01:05:44.741Z,91.70
2019-05-13T01:08:14.839Z,90.90
2019-05-13T01:10:45.270Z,93.20
2019-05-13T01:13:15.548Z,92.20
2019-05-13T01:15:45.575Z,93.80
2019-05-13T01:18:15.638Z,93.00
2019-05-13T01:20:45.672Z,95.10
2019-05-13T01:23:15.603Z,96.00
2019-05-13T01:25:45.637Z,95.20
2019-05-13T01:28:15.639Z,96.00
2019-05-13T01:30:45.616Z,96.50
2019-05-13T01:33:15.618Z,84.90
2019-05-13T01:35:45.662Z,94.70
2019-05-13T01:38:15.697Z,93.80
2019-05-13T01:40:45.740Z,92.10
2019-05-13T01:43:15.742Z,91.40
2019-05-13T01:45:45.767Z,77.00
2019-05-13T01:48:15.732Z,68.90
2019-05-13T01:50:45.691Z,70.00
2019-05-13T01:53:15.729Z,66.90
2019-05-13T01:55:45.755Z,64.50
2019-05-13T01:58:15.787Z,64.00
2019-05-13T02:00:45.751Z,62.80
2019-05-13T02:03:15.847Z,62.80
2019-05-13T02:05:45.780Z,64.40
2019-05-13T02:08:15.741Z,64.30
2019-05-13T02:10:56.072Z,63.90
2019-05-13T02:13:26.244Z,65.40
2019-05-13T02:15:56.360Z,65.10
2019-05-13T02:18:26.524Z,64.70
2019-05-13T02:20:56.596Z,65.10
2019-05-13T02:23:26.699Z,63.90
2019-05-13T02:25:56.697Z,64.00
2019-05-13T02:28:26.735Z,63.80
2019-05-13T02:30:57.188Z,64.70
2019-05-13T02:33:27.205Z,64.10
2019-05-13T02:35:57.293Z,63.80
2019-05-13T02:38:30.718Z,63.70
2019-05-13T02:41:02.564Z,65.70
2019-05-13T02:43:33.313Z,63.40
2019-05-13T02:46:04.218Z,64.50
2019-05-13T02:48:34.419Z,64.50
2019-05-13T02:51:04.529Z,66.00
2019-05-13T02:53:34.584Z,64.90
2019-05-13T02:56:04.699Z,64.40
2019-05-13T02:58:34.685Z,64.20
2019-05-13T03:01:04.801Z,64.60
2019-05-13T03:03:34.894Z,63.20
2019-05-13T03:06:05.411Z,64.20
2019-05-13T03:08:46.278Z,63.40
2019-05-13T03:11:07.049Z,63.60
2019-05-13T03:13:37.244Z,62.40
2019-05-13T03:16:14.696Z,63.60
2019-05-13T03:18:44.978Z,62.30
2019-05-13T03:21:15.016Z,60.90
2019-05-13T03:23:45.058Z,61.30
2019-05-13T03:26:15.159Z,59.90
2019-05-13T03:28:45.232Z,61.50
2019-05-13T03:31:17.555Z,59.80
2019-05-13T03:33:47.617Z,59.10
2019-05-13T03:36:18.417Z,60.00
2019-05-13T03:39:01.448Z,59.50
2019-05-13T03:41:22.805Z,59.80
2019-05-13T03:43:55.904Z,58.60
2019-05-13T03:46:28.740Z,58.50
2019-05-13T03:49:02.389Z,57.70
2019-05-13T03:51:32.982Z,57.40
2019-05-13T03:54:03.382Z,57.30
2019-05-13T03:56:33.570Z,57.60
2019-05-13T03:59:03.682Z,56.80
2019-05-13T04:01:33.775Z,57.20
2019-05-13T04:04:04.916Z,56.70
2019-05-13T04:06:35.027Z,57.60
2019-05-13T04:09:20.765Z,57.80
2019-05-13T04:11:38.008Z,58.90
2019-05-13T04:14:08.116Z,58.40
2019-05-13T04:16:38.479Z,58.90
2019-05-13T04:19:08.604Z,58.50
2019-05-13T04:21:38.740Z,57.90
2019-05-13T04:24:12.030Z,58.80
2019-05-13T04:26:43.229Z,58.10
2019-05-13T04:29:13.401Z,57.10
2019-05-13T04:31:43.640Z,56.30
2019-05-13T04:34:13.747Z,57.30
2019-05-13T04:36:43.748Z,57.20
2019-05-13T04:39:13.788Z,55.60
2019-05-13T04:41:43.864Z,55.60
2019-05-13T04:44:13.902Z,56.00
2019-05-13T04:46:44.005Z,54.70
2019-05-13T04:49:14.172Z,54.30
2019-05-13T04:51:44.268Z,54.20
2019-05-13T04:54:14.400Z,55.00
2019-05-13T04:56:44.504Z,54.90
2019-05-13T04:59:14.614Z,53.70
2019-05-13T05:01:53.204Z,54.10
2019-05-13T05:04:38.883Z,53.70
2019-05-13T05:07:22.164Z,53.30
2019-05-13T05:10:26.582Z,53.00
2019-05-13T05:12:42.694Z,53.30
2019-05-13T05:15:36.906Z,53.60
2019-05-13T05:18:38.143Z,53.60
2019-05-13T05:21:23.120Z,54.70
2019-05-13T05:24:07.887Z,54.20
2019-05-13T05:27:11.931Z,54.00
2019-05-13T05:29:51.646Z,54.40
2019-05-13T05:32:42.536Z,53.90
2019-05-13T05:35:39.587Z,55.00
2019-05-13T05:38:25.680Z,54.50
2019-05-13T05:40:56.191Z,54.40
2019-05-13T05:43:31.370Z,55.50
2019-05-13T05:46:02.435Z,54.60
2019-05-13T05:48:36.008Z,55.00
2019-05-13T05:51:06.111Z,54.40
2019-05-13T05:53:37.651Z,55.80
2019-05-13T05:56:11.396Z,54.30
2019-05-13T05:58:42.616Z,56.20
2019-05-13T06:01:15.783Z,54.90
2019-05-13T06:03:45.923Z,57.00
2019-05-13T06:06:17.424Z,65.90
2019-05-13T06:08:47.592Z,69.90
2019-05-13T06:11:19.392Z,71.80
2019-05-13T06:13:52.172Z,69.60
2019-05-13T06:16:21.790Z,78.00
2019-05-13T06:18:52.337Z,86.10
2019-05-13T06:21:22.995Z,81.60
2019-05-13T06:23:52.995Z,80.20
2019-05-13T06:26:24.175Z,88.20
2019-05-13T06:28:54.244Z,84.70
2019-05-13T06:31:24.340Z,86.00
2019-05-13T06:33:54.423Z,91.10
2019-05-13T06:36:24.526Z,91.30
2019-05-13T06:38:54.903Z,92.60
2019-05-13T06:41:24.947Z,91.30
2019-05-13T06:43:54.954Z,92.10
2019-05-13T06:46:25.068Z,94.30
2019-05-13T06:48:55.171Z,95.80
2019-05-13T06:51:25.099Z,97.60
2019-05-13T06:53:55.600Z,93.40
2019-05-13T06:56:25.816Z,92.60
2019-05-13T06:58:55.855Z,95.30
2019-05-13T07:01:25.852Z,95.00
2019-05-13T07:03:55.963Z,94.80
2019-05-13T07:06:27.456Z,96.60
2019-05-13T07:08:57.727Z,96.20
2019-05-13T07:11:27.683Z,96.10
2019-05-13T07:13:57.696Z,95.10
2019-05-13T07:16:27.728Z,96.90
2019-05-13T07:18:57.771Z,85.40
2019-05-13T07:21:27.808Z,79.70
2019-05-13T07:23:57.875Z,77.80
2019-05-13T07:26:27.915Z,70.50
2019-05-13T07:28:58.614Z,67.70
2019-05-13T07:31:29.116Z,63.50
2019-05-13T07:33:59.148Z,61.50
2019-05-13T07:36:31.427Z,61.90
2019-05-13T07:39:02.640Z,59.40
2019-05-13T07:41:39.065Z,58.00
2019-05-13T07:44:04.545Z,55.40
2019-05-13T07:46:34.476Z,56.30
2019-05-13T07:49:04.575Z,55.40
2019-05-13T07:57:32.826Z,54.30
2019-05-13T08:00:02.935Z,54.00
2019-05-13T08:02:33.055Z,55.10
2019-05-13T08:05:03.196Z,54.40
2019-05-13T08:07:33.252Z,54.70
2019-05-13T08:10:04.469Z,54.80
2019-05-13T08:12:34.494Z,54.40
2019-05-13T08:15:07.008Z,54.50
2019-05-13T08:17:41.051Z,54.70
2019-05-13T08:20:09.464Z,54.30
2019-05-13T08:22:39.491Z,54.10
2019-05-13T08:25:12.399Z,54.40
2019-05-13T08:27:42.160Z,53.90
2019-05-13T08:30:12.732Z,54.40
2019-05-13T08:32:42.831Z,54.40
2019-05-13T08:35:13.828Z,55.20
2019-05-13T08:37:43.825Z,52.70
2019-05-13T08:40:15.619Z,53.30
2019-05-13T08:42:45.628Z,53.40
2019-05-13T08:45:15.823Z,52.70
2019-05-13T08:47:45.906Z,53.80
2019-05-13T08:50:16.791Z,51.90
2019-05-13T08:52:46.895Z,51.80
2019-05-13T08:55:17.867Z,51.30
2019-05-13T08:57:47.892Z,52.50
2019-05-13T09:00:31.874Z,53.50
2019-05-13T09:03:07.444Z,51.20
2019-05-13T09:05:41.246Z,52.50
2019-05-13T09:08:11.510Z,52.10
2019-05-13T09:10:41.887Z,51.30
2019-05-13T09:13:12.203Z,52.30
2019-05-13T09:15:42.354Z,51.80
2019-05-13T09:18:12.814Z,51.60
2019-05-13T09:20:42.811Z,52.20
2019-05-13T09:23:12.767Z,50.20
2019-05-13T09:25:42.867Z,51.90
2019-05-13T09:28:32.528Z,51.70
2019-05-13T09:31:02.598Z,50.20
2019-05-13T09:33:32.904Z,52.10
2019-05-13T09:36:03.048Z,50.50
2019-05-13T09:38:33.053Z,51.00
2019-05-13T09:41:03.195Z,50.30
2019-05-13T09:43:33.280Z,50.10
2019-05-13T09:46:03.389Z,49.60
2019-05-13T09:48:33.415Z,50.10
2019-05-13T09:51:03.468Z,51.70
2019-05-13T09:53:33.572Z,49.80
2019-05-13T09:56:03.671Z,49.80
2019-05-13T09:58:33.707Z,50.00
2019-05-13T10:01:03.915Z,47.20
2019-05-13T10:03:34.016Z,47.50
2019-05-13T10:06:04.119Z,50.50
2019-05-13T10:08:34.190Z,49.00
2019-05-13T10:11:04.291Z,49.60
2019-05-13T10:13:34.329Z,46.90
2019-05-13T10:16:04.923Z,48.30
2019-05-13T10:18:34.991Z,46.90
2019-05-13T10:21:05.595Z,48.90
2019-05-13T10:23:35.691Z,45.70
2019-05-13T10:26:07.937Z,47.50
2019-05-13T10:28:38.443Z,48.30
2019-05-13T10:31:11.795Z,48.50
2019-05-13T10:33:41.989Z,50.20
2019-05-13T10:36:12.492Z,51.10
2019-05-13T10:38:42.531Z,51.90
2019-05-13T10:41:12.609Z,52.70
2019-05-13T10:43:44.173Z,50.10
2019-05-13T10:46:14.292Z,49.40
2019-05-13T10:48:44.360Z,52.60
2019-05-13T10:51:14.467Z,53.40
2019-05-13T10:53:44.543Z,51.50
2019-05-13T10:56:14.656Z,52.60
2019-05-13T10:58:44.958Z,53.40
2019-05-13T11:01:15.061Z,54.70
2019-05-13T11:03:45.668Z,54.20
2019-05-13T11:06:15.782Z,56.80
2019-05-13T11:08:45.873Z,55.30
2019-05-13T11:11:15.803Z,57.10
2019-05-13T11:16:17.632Z,62.00
2019-05-13T11:18:47.667Z,64.00
2019-05-13T11:21:17.743Z,63.50
2019-05-13T11:23:47.924Z,60.40
2019-05-13T11:26:18.319Z,56.40
2019-05-13T11:28:48.267Z,55.40
2019-05-13T11:31:18.299Z,54.20
2019-05-13T11:33:48.399Z,54.00
2019-05-13T11:36:19.269Z,54.50
2019-05-13T11:38:48.848Z,55.20
2019-05-13T11:41:22.600Z,54.10
2019-05-13T11:44:11.004Z,52.40
2019-05-13T11:46:23.079Z,53.00
2019-05-13T11:48:54.727Z,51.40
2019-05-13T11:51:24.725Z,52.30
2019-05-13T11:53:54.755Z,49.50
2019-05-13T11:56:24.955Z,50.80
2019-05-13T11:58:55.031Z,52.30
2019-05-13T12:01:33.991Z,51.10
2019-05-13T12:04:04.711Z,53.60
2019-05-13T12:06:34.656Z,55.20
2019-05-13T12:09:07.696Z,56.40
2019-05-13T12:11:37.771Z,55.00
2019-05-13T12:14:07.799Z,55.30
2019-05-13T12:16:37.902Z,55.60
2019-05-13T12:19:07.939Z,58.10
2019-05-13T12:21:43.221Z,59.40
2019-05-13T12:24:11.282Z,59.60
2019-05-13T12:26:43.393Z,59.40
2019-05-13T12:29:18.559Z,61.10
2019-05-13T12:31:44.976Z,60.70
2019-05-13T12:34:15.543Z,61.40
2019-05-13T12:36:45.647Z,61.30
2019-05-13T12:39:15.681Z,60.20
2019-05-13T12:41:45.707Z,61.90
2019-05-13T12:44:15.875Z,63.50
2019-05-13T12:46:50.135Z,61.30
2019-05-13T12:49:17.604Z,60.70
2019-05-13T12:51:47.603Z,61.80
2019-05-13T12:54:17.707Z,63.60
2019-05-13T12:56:52.114Z,61.50
2019-05-13T12:59:22.217Z,61.90
2019-05-13T13:01:52.874Z,62.40
2019-05-13T13:04:23.938Z,62.90
2019-05-13T13:06:56.180Z,61.90
2019-05-13T13:09:27.838Z,58.90
2019-05-13T13:11:59.512Z,57.90
2019-05-13T13:14:39.071Z,58.10
2019-05-13T13:17:07.072Z,58.20
2019-05-13T13:19:37.290Z,60.00
2019-05-13T13:22:08.168Z,59.20
2019-05-13T13:24:47.046Z,60.40
2019-05-13T13:27:20.865Z,58.70
2019-05-13T13:29:49.154Z,60.20
2019-05-13T13:32:19.360Z,59.20
2019-05-13T13:34:54.840Z,62.10
2019-05-13T13:37:25.571Z,62.70
2019-05-13T13:39:55.768Z,61.30
2019-05-13T13:42:25.801Z,62.50
2019-05-13T13:44:55.916Z,60.30
2019-05-13T13:47:25.987Z,60.20
2019-05-13T13:50:06.504Z,59.20
2019-05-13T13:52:36.548Z,58.00
2019-05-13T13:55:08.992Z,57.00
2019-05-13T13:57:38.599Z,57.20
2019-05-13T14:00:34.500Z,56.20
2019-05-13T14:02:54.576Z,55.50
2019-05-13T14:05:25.130Z,59.10
2019-05-13T14:06:28.556Z,59.60
2019-05-13T14:07:55.415Z,59.80
2019-05-13T14:10:25.844Z,59.80
2019-05-13T14:12:55.678Z,59.00
2019-05-13T14:15:25.744Z,62.10
2019-05-13T14:17:56.257Z,62.90
2019-05-13T14:20:26.253Z,67.60
2019-05-13T14:22:57.970Z,66.50
2019-05-13T14:25:27.907Z,68.90
2019-05-13T14:27:57.905Z,67.50
2019-05-13T14:30:27.915Z,67.90
2019-05-13T14:32:57.950Z,63.90
2019-05-13T14:35:28.056Z,63.20
2019-05-13T14:37:58.015Z,66.20
2019-05-13T14:40:28.087Z,67.70
2019-05-13T14:42:59.268Z,68.30
2019-05-13T14:45:31.843Z,69.80
2019-05-13T14:48:01.777Z,71.10
2019-05-13T14:50:32.042Z,71.40
2019-05-13T14:53:02.055Z,71.60
2019-05-13T14:55:33.132Z,71.90
2019-05-13T14:58:03.635Z,73.70
2019-05-13T15:00:41.336Z,74.30
2019-05-13T15:03:13.220Z,75.20
2019-05-13T15:05:43.422Z,76.90
2019-05-13T15:08:13.459Z,78.10
2019-05-13T15:10:43.879Z,78.50
2019-05-13T15:13:13.816Z,79.80
2019-05-13T15:15:43.814Z,77.90
2019-05-13T15:18:15.026Z,77.80
2019-05-13T15:20:45.208Z,78.00
2019-05-13T15:23:15.606Z,78.50
2019-05-13T15:25:45.628Z,78.10
2019-05-13T15:28:15.587Z,79.30
2019-05-13T15:30:45.578Z,78.80
2019-05-13T15:33:15.579Z,78.20
2019-05-13T15:35:45.585Z,79.90
2019-05-13T15:38:16.015Z,79.30
2019-05-13T15:40:46.087Z,79.30
2019-05-13T15:43:16.047Z,78.50
2019-05-13T15:45:46.123Z,79.70
2019-05-13T15:48:16.104Z,80.60
2019-05-13T15:50:46.098Z,80.30
2019-05-13T15:53:16.213Z,80.10
2019-05-13T15:55:46.240Z,78.50
2019-05-13T15:58:16.200Z,78.80
2019-05-13T16:00:46.352Z,76.70
2019-05-13T16:03:16.373Z,76.10
2019-05-13T16:05:46.487Z,76.30
2019-05-13T16:08:16.419Z,78.10
2019-05-13T16:10:46.579Z,76.90
2019-05-13T16:13:16.673Z,77.40
2019-05-13T16:15:46.719Z,77.80
2019-05-13T16:18:17.866Z,77.40
2019-05-13T16:20:47.901Z,79.50
2019-05-13T16:23:17.939Z,78.40
2019-05-13T16:25:48.062Z,79.40
2019-05-13T16:28:18.210Z,79.40
2019-05-13T16:30:48.364Z,79.80
2019-05-13T16:33:18.435Z,79.70
2019-05-13T16:35:48.410Z,80.30
2019-05-13T16:38:18.515Z,80.30
2019-05-13T16:40:48.665Z,79.20
2019-05-13T16:43:18.676Z,79.60
2019-05-13T16:45:52.122Z,79.90
2019-05-13T16:48:21.734Z,80.70
2019-05-13T16:50:51.812Z,80.90
2019-05-13T16:53:25.876Z,81.90
2019-05-13T16:55:54.708Z,80.90
2019-05-13T16:58:25.187Z,81.10
2019-05-13T17:01:02.496Z,79.40
2019-05-13T17:03:33.453Z,80.40
2019-05-13T17:06:04.692Z,80.80
2019-05-13T17:08:34.743Z,80.10
2019-05-13T17:11:04.854Z,79.50
2019-05-13T17:13:34.900Z,80.10
2019-05-13T17:16:05.006Z,80.20
2019-05-13T17:18:34.975Z,80.60
2019-05-13T17:21:05.189Z,82.50
2019-05-13T17:23:35.175Z,82.80
2019-05-13T17:26:05.331Z,82.20
2019-05-13T17:28:35.437Z,82.50
2019-05-13T17:31:05.478Z,86.00
2019-05-13T17:33:35.530Z,86.20
2019-05-13T17:36:05.626Z,84.70
2019-05-13T17:38:35.664Z,84.30
2019-05-13T17:41:05.764Z,88.10
2019-05-13T17:43:35.764Z,87.20
2019-05-13T17:46:05.850Z,89.80
2019-05-13T17:48:35.987Z,90.40
2019-05-13T17:51:06.140Z,90.90
2019-05-13T17:53:36.212Z,89.60
2019-05-13T17:56:06.313Z,91.50
2019-05-13T17:58:36.335Z,92.10
2019-05-13T18:01:06.426Z,92.00
2019-05-13T18:03:36.547Z,92.50
2019-05-13T18:06:06.701Z,92.30
2019-05-13T18:08:36.882Z,92.30
2019-05-13T18:11:06.999Z,92.10
2019-05-13T18:13:40.802Z,93.50
2019-05-13T18:16:12.395Z,94.40
2019-05-13T18:19:18.025Z,95.30
2019-05-13T18:21:51.644Z,95.10
2019-05-13T18:24:21.654Z,94.00
2019-05-13T18:26:52.126Z,94.40
2019-05-13T18:29:22.781Z,95.20
2019-05-13T18:31:53.198Z,94.70
2019-05-13T18:34:23.349Z,94.10
2019-05-13T18:36:53.383Z,92.40
2019-05-13T18:39:23.626Z,91.50
2019-05-13T18:41:54.066Z,92.20
2019-05-13T18:44:26.197Z,94.00
2019-05-13T18:46:56.356Z,94.40
2019-05-13T18:49:33.209Z,95.10
2019-05-13T18:52:03.524Z,96.40
2019-05-13T18:54:33.672Z,96.00
2019-05-13T18:57:03.840Z,97.10
2019-05-13T18:59:34.024Z,96.90
2019-05-13T19:02:04.159Z,96.00
2019-05-13T19:04:34.260Z,96.70
2019-05-13T19:07:07.553Z,97.30
2019-05-13T19:09:35.918Z,96.70
2019-05-13T19:12:06.096Z,95.30
2019-05-13T19:14:37.207Z,95.40
2019-05-13T19:17:07.387Z,95.60
2019-05-13T19:19:37.515Z,95.10
2019-05-13T19:22:07.691Z,95.40
2019-05-13T19:24:37.729Z,95.60
2019-05-13T19:27:07.770Z,96.90
2019-05-13T19:29:37.919Z,97.20
2019-05-13T19:32:07.960Z,97.40
2019-05-13T19:34:37.949Z,96.20
2019-05-13T19:37:08.047Z,96.10
2019-05-13T19:39:38.230Z,96.40
2019-05-13T19:42:08.518Z,95.90
2019-05-13T19:44:38.622Z,97.10
2019-05-13T19:47:12.215Z,97.30
2019-05-13T19:49:45.753Z,97.10
2019-05-13T19:52:13.172Z,98.80
2019-05-13T19:54:43.363Z,99.10
2019-05-13T19:57:13.378Z,99.10
2019-05-13T19:59:43.422Z,97.80
2019-05-13T20:02:19.240Z,97.40
2019-05-13T20:04:51.736Z,97.50
2019-05-13T20:07:22.439Z,98.00
2019-05-13T20:09:52.882Z,97.60
2019-05-13T20:12:23.048Z,97.60
2019-05-13T20:14:53.198Z,99.80
2019-05-13T20:17:23.268Z,99.90
2019-05-13T20:19:53.721Z,99.90
2019-05-13T20:22:24.138Z,99.80
2019-05-13T20:24:54.156Z,98.10
2019-05-13T20:27:24.256Z,98.30
2019-05-13T20:29:54.411Z,98.80
2019-05-13T20:32:37.478Z,99.80
2019-05-13T20:35:07.995Z,99.60
2019-05-13T20:37:38.092Z,99.50
2019-05-13T20:40:14.960Z,99.30
2019-05-13T20:42:45.345Z,98.50
2019-05-13T20:45:42.167Z,99.00
2019-05-13T20:48:14.343Z,99.40
2019-05-13T20:50:47.837Z,99.00
2019-05-13T20:53:44.671Z,99.50
2019-05-13T20:56:17.201Z,99.50
2019-05-13T20:58:51.516Z,99.90
2019-05-13T21:01:41.973Z,99.60
2019-05-13T21:04:18.550Z,99.20
2019-05-13T21:06:48.627Z,99.40
2019-05-13T21:09:18.873Z,99.40
2019-05-13T21:11:56.906Z,99.30
2019-05-13T21:14:26.999Z,99.30
2019-05-13T21:16:57.299Z,99.60
2019-05-13T21:19:39.152Z,99.90
2019-05-13T21:22:07.812Z,99.80
2019-05-13T21:24:38.065Z,99.30
2019-05-13T21:27:08.176Z,98.20
2019-05-13T21:29:41.426Z,97.10
2019-05-13T21:32:11.726Z,97.40
2019-05-13T21:34:42.412Z,97.30
2019-05-13T21:37:12.591Z,97.40
2019-05-13T21:39:42.711Z,96.30
2019-05-13T21:42:13.895Z,96.60
2019-05-13T21:44:44.008Z,96.50
2019-05-13T21:47:14.103Z,97.50
2019-05-13T21:49:44.567Z,96.40
2019-05-13T21:52:23.609Z,97.30
2019-05-13T21:54:53.601Z,97.50
2019-05-13T21:57:23.614Z,97.40
2019-05-13T22:02:43.692Z,97.90
2019-05-13T22:05:13.963Z,97.90
2019-05-13T22:07:43.995Z,97.80
2019-05-13T22:10:14.368Z,97.70
2019-05-13T22:12:44.412Z,96.90
2019-05-13T22:15:14.487Z,98.00
2019-05-13T22:17:44.607Z,97.60
2019-05-13T22:20:15.316Z,97.80
2019-05-13T22:22:45.356Z,98.50
2019-05-13T22:25:15.463Z,98.60
2019-05-13T22:27:45.400Z,98.00
2019-05-13T22:30:16.007Z,98.40
2019-05-13T22:32:45.958Z,98.30
2019-05-13T22:35:15.995Z,98.60
2019-05-13T22:37:46.013Z,99.40
2019-05-13T22:40:16.302Z,99.40
2019-05-13T22:42:46.444Z,99.40
2019-05-13T22:45:17.069Z,99.90
2019-05-13T22:47:47.079Z,99.90
2019-05-13T22:50:17.290Z,99.90
2019-05-13T22:52:47.463Z,99.90
2019-05-13T22:55:17.651Z,99.90
2019-05-13T22:57:47.684Z,99.90
2019-05-13T23:00:34.049Z,99.90
2019-05-13T23:03:08.551Z,99.90
2019-05-13T23:05:38.519Z,99.90
2019-05-13T23:08:08.526Z,99.90
2019-05-13T23:10:38.563Z,99.90
2019-05-13T23:13:08.568Z,99.90
2019-05-13T23:15:38.619Z,99.90
2019-05-13T23:18:08.687Z,99.80
2019-05-13T23:20:40.875Z,99.70
2019-05-13T23:23:11.823Z,99.50
2019-05-13T23:25:43.207Z,99.90
2019-05-13T23:28:13.604Z,99.70
2019-05-13T23:30:43.675Z,99.90
2019-05-13T23:33:13.679Z,99.80
2019-05-13T23:35:43.787Z,99.90
2019-05-13T23:38:13.718Z,99.90
2019-05-13T23:40:43.752Z,99.90
2019-05-13T23:43:13.687Z,99.90
2019-05-13T23:45:43.731Z,99.60
2019-05-13T23:48:13.739Z,99.90
2019-05-13T23:50:43.703Z,99.70
2019-05-13T23:53:13.669Z,99.90
2019-05-13T23:55:43.670Z,98.50
2019-05-13T23:58:13.643Z,98.80
